createdAt,value
2019-04-23T00:00:29.408Z,2.30
2019-04-23T00:01:35.372Z,2.00
2019-04-23T00:02:30.140Z,1.70
2019-04-23T00:03:36.007Z,2.00
2019-04-23T00:04:28.397Z,2.00
2019-04-23T00:05:48.558Z,1.90
2019-04-23T00:06:32.208Z,1.90
2019-04-23T00:07:44.307Z,1.90
2019-04-23T00:08:41.996Z,1.90
2019-04-23T00:09:36.852Z,2.00
2019-04-23T00:10:53.742Z,2.00
2019-04-23T00:11:32.534Z,2.10
2019-04-23T00:12:47.848Z,2.00
2019-04-23T00:13:39.325Z,1.80
2019-04-23T00:14:38.512Z,1.90
2019-04-23T00:15:30.428Z,2.00
2019-04-23T00:16:39.458Z,2.10
2019-04-23T00:17:40.234Z,2.30
2019-04-23T00:18:42.652Z,2.00
2019-04-23T00:19:31.154Z,1.90
2019-04-23T00:20:34.875Z,1.90
2019-04-23T00:21:33.367Z,1.70
2019-04-23T00:23:49.807Z,2.10
2019-04-23T00:24:56.790Z,2.00
2019-04-23T00:26:50.459Z,1.90
2019-04-23T00:27:38.869Z,1.90
2019-04-23T00:28:35.906Z,1.90
2019-04-23T00:29:37.058Z,2.10
2019-04-23T00:30:43.220Z,2.00
2019-04-23T00:31:41.204Z,1.90
2019-04-23T00:32:35.055Z,2.00
2019-04-23T00:33:34.604Z,1.90
2019-04-23T00:34:42.658Z,2.10
2019-04-23T00:35:38.660Z,2.00
2019-04-23T00:37:37.392Z,2.30
2019-04-23T00:38:38.405Z,1.80
2019-04-23T00:39:41.002Z,2.20
2019-04-23T00:40:40.385Z,2.30
2019-04-23T00:41:36.624Z,1.80
2019-04-23T00:43:00.655Z,1.80
2019-04-23T00:43:34.252Z,2.00
2019-04-23T00:44:40.067Z,2.10
2019-04-23T00:45:40.721Z,2.00
2019-04-23T00:46:34.955Z,2.10
2019-04-23T00:47:51.388Z,2.00
2019-04-23T00:50:04.331Z,2.00
2019-04-23T00:50:44.980Z,2.10
2019-04-23T00:51:38.243Z,1.70
2019-04-23T00:52:50.691Z,1.80
2019-04-23T00:53:34.226Z,2.10
2019-04-23T00:54:46.840Z,2.20
2019-04-23T00:55:35.598Z,1.80
2019-04-23T00:56:57.028Z,1.80
2019-04-23T00:59:41.141Z,2.10
2019-04-23T01:01:47.752Z,1.90
2019-04-23T01:02:37.290Z,2.00
2019-04-23T01:03:37.454Z,2.20
2019-04-23T01:04:41.798Z,1.90
2019-04-23T01:05:37.718Z,2.20
2019-04-23T01:06:39.349Z,2.20
2019-04-23T01:07:40.337Z,2.20
2019-04-23T01:08:36.871Z,2.00
2019-04-23T01:09:42.263Z,2.20
2019-04-23T01:10:34.900Z,2.10
2019-04-23T01:11:34.211Z,1.90
2019-04-23T01:14:38.581Z,2.20
2019-04-23T01:15:39.111Z,1.90
2019-04-23T01:16:38.114Z,2.00
2019-04-23T01:17:39.946Z,1.80
2019-04-23T01:18:49.093Z,1.70
2019-04-23T01:19:37.486Z,2.00
2019-04-23T01:20:36.571Z,1.80
2019-04-23T01:21:18.029Z,1.80
2019-04-23T01:22:16.927Z,2.10
2019-04-23T01:23:20.652Z,2.20
2019-04-23T01:24:20.131Z,2.10
2019-04-23T01:25:24.773Z,1.90
2019-04-23T01:26:39.079Z,2.10
2019-04-23T01:27:57.232Z,2.10
2019-04-23T01:28:50.278Z,2.00
2019-04-23T01:29:42.510Z,1.80
2019-04-23T01:30:40.507Z,2.00
2019-04-23T01:31:43.091Z,2.00
2019-04-23T01:32:44.048Z,2.00
2019-04-23T01:33:44.696Z,1.90
2019-04-23T01:34:51.958Z,1.70
2019-04-23T01:35:42.494Z,1.80
2019-04-23T01:36:37.231Z,2.00
2019-04-23T01:37:41.088Z,2.20
2019-04-23T01:38:45.541Z,2.00
2019-04-23T01:39:43.892Z,2.00
2019-04-23T01:40:40.611Z,2.10
2019-04-23T01:41:47.823Z,1.80
2019-04-23T01:43:44.351Z,1.90
2019-04-23T01:45:35.916Z,2.20
2019-04-23T01:47:45.373Z,1.70
2019-04-23T01:48:48.190Z,2.10
2019-04-23T01:49:56.532Z,1.90
2019-04-23T01:50:48.375Z,2.00
2019-04-23T01:51:46.801Z,1.80
2019-04-23T01:52:52.165Z,1.90
2019-04-23T01:53:45.489Z,2.10
2019-04-23T01:54:45.549Z,1.90
2019-04-23T01:55:46.999Z,1.90
2019-04-23T01:56:38.584Z,2.00
2019-04-23T01:58:51.874Z,2.00
2019-04-23T01:59:49.772Z,2.00
2019-04-23T02:00:49.423Z,1.90
2019-04-23T02:01:51.865Z,1.80
2019-04-23T02:02:49.600Z,1.90
2019-04-23T02:03:52.247Z,2.00
2019-04-23T02:04:46.117Z,2.00
2019-04-23T02:06:45.460Z,1.90
2019-04-23T02:07:53.711Z,1.80
2019-04-23T02:08:48.519Z,2.10
2019-04-23T02:09:53.188Z,1.90
2019-04-23T02:10:51.253Z,1.80
2019-04-23T02:11:43.829Z,1.70
2019-04-23T02:12:47.719Z,2.00
2019-04-23T02:13:48.987Z,1.80
2019-04-23T02:14:51.767Z,2.00
2019-04-23T02:16:44.107Z,2.00
2019-04-23T02:17:52.114Z,1.80
2019-04-23T02:18:49.318Z,1.80
2019-04-23T02:20:48.078Z,2.00
2019-04-23T02:21:54.821Z,2.10
2019-04-23T02:23:44.023Z,2.00
2019-04-23T02:24:47.696Z,1.90
2019-04-23T02:26:43.453Z,1.80
2019-04-23T02:27:52.248Z,1.90
2019-04-23T02:30:20.701Z,2.00
2019-04-23T02:31:58.193Z,1.80
2019-04-23T02:32:59.463Z,2.30
2019-04-23T02:35:02.341Z,1.70
2019-04-23T02:38:00.323Z,2.10
2019-04-23T02:40:01.021Z,2.10
2019-04-23T02:43:59.292Z,2.20
2019-04-23T02:44:56.346Z,1.90
2019-04-23T02:46:59.330Z,2.00
2019-04-23T02:48:01.511Z,2.20
2019-04-23T02:48:58.272Z,1.70
2019-04-23T02:50:33.632Z,1.80
2019-04-23T02:52:57.793Z,2.30
2019-04-23T02:56:51.478Z,2.10
2019-04-23T02:58:01.868Z,2.10
2019-04-23T03:02:12.009Z,2.00
2019-04-23T03:04:02.360Z,2.00
2019-04-23T03:05:57.264Z,1.70
2019-04-23T03:07:16.032Z,2.20
2019-04-23T03:07:54.237Z,1.70
2019-04-23T03:12:00.698Z,2.00
2019-04-23T03:13:19.800Z,2.00
2019-04-23T03:15:05.101Z,2.10
2019-04-23T03:17:03.053Z,2.30
2019-04-23T03:18:12.203Z,2.00
2019-04-23T03:19:58.578Z,2.30
2019-04-23T03:21:11.636Z,1.90
2019-04-23T03:26:00.191Z,2.00
2019-04-23T03:28:11.714Z,2.00
2019-04-23T03:29:04.297Z,2.10
2019-04-23T03:32:30.841Z,2.30
2019-04-23T03:37:55.774Z,2.10
2019-04-23T03:41:09.125Z,2.20
2019-04-23T03:42:24.415Z,2.00
2019-04-23T03:43:47.086Z,2.20
2019-04-23T03:46:12.141Z,2.10
2019-04-23T03:46:51.415Z,2.10
2019-04-23T03:48:00.804Z,2.10
2019-04-23T03:48:51.204Z,2.20
2019-04-23T03:50:58.206Z,2.10
2019-04-23T03:52:01.223Z,2.50
2019-04-23T03:52:57.639Z,2.00
2019-04-23T03:54:05.840Z,2.40
2019-04-23T03:54:49.046Z,1.90
2019-04-23T03:56:05.600Z,2.20
2019-04-23T03:57:52.602Z,2.10
2019-04-23T03:58:58.188Z,1.90
2019-04-23T04:00:04.021Z,2.20
2019-04-23T04:01:01.401Z,2.10
2019-04-23T04:04:49.858Z,2.20
2019-04-23T04:09:08.517Z,2.50
2019-04-23T04:09:53.875Z,2.30
2019-04-23T04:12:00.982Z,2.20
2019-04-23T04:12:56.899Z,2.10
2019-04-23T04:16:07.464Z,2.20
2019-04-23T04:16:59.862Z,2.30
2019-04-23T04:18:11.676Z,2.50
2019-04-23T04:21:08.750Z,2.10
2019-04-23T04:22:15.104Z,2.30
2019-04-23T04:23:07.887Z,2.10
2019-04-23T04:25:03.256Z,2.20
2019-04-23T04:26:00.288Z,2.20
2019-04-23T04:29:01.244Z,2.30
2019-04-23T04:30:01.646Z,2.20
2019-04-23T04:30:53.746Z,2.30
2019-04-23T04:36:10.297Z,2.00
2019-04-23T04:37:27.650Z,2.10
2019-04-23T04:38:05.725Z,2.00
2019-04-23T04:40:23.259Z,2.20
2019-04-23T04:41:04.286Z,2.20
2019-04-23T04:41:58.827Z,2.00
2019-04-23T04:46:59.181Z,2.40
2019-04-23T04:47:53.986Z,2.30
2019-04-23T04:51:07.983Z,2.30
2019-04-23T04:55:03.279Z,2.20
2019-04-23T04:56:14.281Z,2.20
2019-04-23T04:57:04.987Z,2.30
2019-04-23T04:57:58.148Z,2.30
2019-04-23T05:00:45.653Z,2.70
2019-04-23T05:02:09.669Z,2.50
2019-04-23T05:04:02.421Z,2.20
2019-04-23T05:07:22.880Z,2.60
2019-04-23T05:09:00.753Z,2.50
2019-04-23T05:10:08.797Z,2.40
2019-04-23T05:11:10.862Z,2.40
2019-04-23T05:13:21.370Z,2.30
2019-04-23T05:14:01.352Z,2.70
2019-04-23T05:15:02.680Z,2.40
2019-04-23T05:16:02.916Z,2.40
2019-04-23T05:17:19.829Z,2.50
2019-04-23T05:18:08.393Z,2.30
2019-04-23T05:19:20.071Z,2.50
2019-04-23T05:19:58.952Z,2.30
2019-04-23T05:21:08.107Z,2.40
2019-04-23T05:23:09.153Z,2.40
2019-04-23T05:24:06.685Z,2.50
2019-04-23T05:24:52.812Z,2.40
2019-04-23T05:26:02.801Z,2.50
2019-04-23T05:26:57.957Z,2.40
2019-04-23T05:28:07.697Z,2.40
2019-04-23T05:29:01.725Z,2.60
2019-04-23T05:30:02.213Z,2.40
2019-04-23T05:31:02.311Z,2.40
2019-04-23T05:31:53.530Z,2.50
2019-04-23T05:33:08.827Z,2.70
2019-04-23T05:34:02.965Z,2.60
2019-04-23T05:34:56.130Z,2.20
2019-04-23T05:36:12.786Z,2.40
2019-04-23T05:37:00.171Z,2.40
2019-04-23T05:38:08.856Z,2.20
2019-04-23T05:40:00.438Z,2.50
2019-04-23T05:41:03.714Z,2.50
2019-04-23T05:42:13.997Z,2.30
2019-04-23T05:42:58.726Z,2.70
2019-04-23T05:44:05.215Z,2.20
2019-04-23T05:45:00.827Z,2.40
2019-04-23T05:45:56.876Z,2.50
2019-04-23T05:47:06.312Z,2.80
2019-04-23T05:48:09.704Z,2.50
2019-04-23T05:49:04.556Z,2.60
2019-04-23T05:50:00.430Z,2.30
2019-04-23T05:51:09.642Z,2.40
2019-04-23T05:52:59.757Z,2.40
2019-04-23T05:53:58.397Z,2.30
2019-04-23T05:55:02.678Z,2.30
2019-04-23T05:56:01.973Z,2.30
2019-04-23T05:56:55.076Z,2.70
2019-04-23T05:58:06.435Z,2.50
2019-04-23T05:59:11.562Z,2.60
2019-04-23T06:00:04.226Z,2.70
2019-04-23T06:01:11.409Z,2.80
2019-04-23T06:01:58.627Z,2.70
2019-04-23T06:03:06.345Z,2.80
2019-04-23T06:04:57.342Z,3.10
2019-04-23T06:06:02.969Z,3.30
2019-04-23T06:08:03.443Z,3.00
2019-04-23T06:08:58.628Z,3.00
2019-04-23T06:09:59.455Z,2.80
2019-04-23T06:11:02.325Z,2.80
2019-04-23T06:12:59.681Z,2.70
2019-04-23T06:14:05.175Z,2.90
2019-04-23T06:15:01.652Z,2.80
2019-04-23T06:15:57.705Z,3.20
2019-04-23T06:17:03.179Z,2.80
2019-04-23T06:20:06.689Z,3.40
2019-04-23T06:21:15.646Z,3.20
2019-04-23T06:22:07.476Z,3.00
2019-04-23T06:23:06.388Z,2.90
2019-04-23T06:24:13.114Z,3.00
2019-04-23T06:25:03.357Z,3.20
2019-04-23T06:26:19.773Z,3.00
2019-04-23T06:28:05.094Z,3.10
2019-04-23T06:29:05.017Z,3.60
2019-04-23T06:30:23.896Z,3.30
2019-04-23T06:31:04.996Z,3.00
2019-04-23T06:32:14.927Z,3.10
2019-04-23T06:32:59.644Z,3.20
2019-04-23T06:34:04.196Z,3.40
2019-04-23T06:35:01.494Z,3.10
2019-04-23T06:36:05.497Z,3.40
2019-04-23T06:37:06.870Z,2.90
2019-04-23T06:38:26.137Z,2.70
2019-04-23T06:40:00.387Z,3.30
2019-04-23T06:41:00.799Z,3.30
2019-04-23T06:42:00.454Z,3.50
2019-04-23T06:43:05.361Z,3.30
2019-04-23T06:44:05.823Z,3.00
2019-04-23T06:45:02.954Z,3.00
2019-04-23T06:45:59.080Z,3.10
2019-04-23T06:47:03.711Z,3.60
2019-04-23T06:48:09.179Z,3.40
2019-04-23T06:49:00.849Z,3.50
2019-04-23T06:50:00.131Z,3.50
2019-04-23T06:51:04.254Z,3.40
2019-04-23T06:52:08.632Z,3.20
2019-04-23T06:52:57.211Z,3.40
2019-04-23T06:55:01.155Z,3.10
2019-04-23T06:56:03.867Z,3.40
2019-04-23T06:57:14.604Z,3.30
2019-04-23T06:58:04.490Z,3.10
2019-04-23T06:59:06.368Z,3.60
2019-04-23T07:00:02.398Z,3.40
2019-04-23T07:01:02.079Z,3.50
2019-04-23T07:02:06.658Z,3.50
2019-04-23T07:03:10.828Z,3.30
2019-04-23T07:04:05.467Z,3.40
2019-04-23T07:07:24.141Z,3.60
2019-04-23T07:08:02.788Z,3.50
2019-04-23T07:09:10.724Z,3.40
2019-04-23T07:09:59.377Z,3.20
2019-04-23T07:11:07.890Z,3.50
2019-04-23T07:11:55.535Z,3.40
2019-04-23T07:13:08.889Z,3.60
2019-04-23T07:15:04.472Z,3.50
2019-04-23T07:16:03.189Z,3.70
2019-04-23T07:17:04.189Z,3.30
2019-04-23T07:18:05.806Z,3.50
2019-04-23T07:20:00.242Z,3.70
2019-04-23T07:21:09.453Z,3.40
2019-04-23T07:22:16.400Z,3.70
2019-04-23T07:23:10.195Z,3.40
2019-04-23T07:24:05.211Z,3.60
2019-04-23T07:26:08.075Z,3.60
2019-04-23T07:27:03.310Z,3.50
2019-04-23T07:28:06.890Z,3.60
2019-04-23T07:29:08.971Z,3.90
2019-04-23T07:30:08.684Z,3.40
2019-04-23T07:31:07.345Z,3.90
2019-04-23T07:33:04.524Z,3.60
2019-04-23T07:34:20.428Z,3.60
2019-04-23T07:35:07.232Z,3.50
2019-04-23T07:36:08.580Z,3.80
2019-04-23T07:37:06.950Z,3.50
2019-04-23T07:38:16.363Z,3.40
2019-04-23T07:39:11.638Z,3.80
2019-04-23T07:41:15.327Z,3.70
2019-04-23T07:42:08.108Z,3.70
2019-04-23T07:44:16.669Z,3.50
2019-04-23T07:46:10.547Z,4.00
2019-04-23T07:47:16.193Z,3.50
2019-04-23T07:48:10.854Z,3.50
2019-04-23T07:49:04.618Z,3.80
2019-04-23T07:50:19.092Z,3.60
2019-04-23T07:51:03.339Z,3.40
2019-04-23T07:54:08.064Z,3.40
2019-04-23T07:55:16.326Z,3.80
2019-04-23T07:56:07.502Z,3.60
2019-04-23T07:57:13.488Z,3.90
2019-04-23T07:58:14.294Z,3.50
2019-04-23T07:59:16.049Z,3.40
2019-04-23T08:00:29.707Z,3.60
2019-04-23T08:01:11.264Z,3.60
2019-04-23T08:02:15.915Z,3.70
2019-04-23T08:03:13.560Z,3.70
2019-04-23T08:04:30.188Z,3.90
2019-04-23T08:05:21.595Z,3.60
2019-04-23T08:06:04.230Z,3.60
2019-04-23T08:07:12.834Z,3.50
2019-04-23T08:08:07.286Z,3.50
2019-04-23T08:09:08.549Z,3.60
2019-04-23T08:10:10.394Z,3.70
2019-04-23T08:11:30.471Z,3.90
2019-04-23T08:12:13.690Z,3.90
2019-04-23T08:13:10.336Z,3.90
2019-04-23T08:14:05.172Z,4.00
2019-04-23T08:15:13.082Z,3.50
2019-04-23T08:16:19.152Z,3.90
2019-04-23T08:17:07.395Z,3.80
2019-04-23T08:18:08.893Z,3.70
2019-04-23T08:19:24.555Z,3.70
2019-04-23T08:20:07.860Z,3.60
2019-04-23T08:21:10.448Z,4.20
2019-04-23T08:22:09.174Z,3.70
2019-04-23T08:23:12.532Z,3.60
2019-04-23T08:24:17.011Z,3.50
2019-04-23T08:25:27.249Z,3.90
2019-04-23T08:26:13.598Z,4.20
2019-04-23T08:27:16.629Z,4.30
2019-04-23T08:28:13.551Z,3.70
2019-04-23T08:29:12.280Z,3.80
2019-04-23T08:30:04.532Z,3.60
2019-04-23T08:34:18.642Z,3.60
2019-04-23T08:36:12.239Z,3.70
2019-04-23T08:37:08.902Z,3.80
2019-04-23T08:39:11.539Z,3.90
2019-04-23T08:40:20.176Z,4.00
2019-04-23T08:41:20.644Z,3.90
2019-04-23T08:42:27.055Z,3.80
2019-04-23T08:44:15.582Z,3.80
2019-04-23T08:45:18.709Z,3.90
2019-04-23T08:46:13.990Z,4.10
2019-04-23T08:47:10.099Z,4.40
2019-04-23T08:49:13.977Z,4.10
2019-04-23T08:50:06.812Z,4.40
2019-04-23T08:51:22.325Z,4.10
2019-04-23T08:52:11.791Z,3.90
2019-04-23T08:53:26.369Z,4.20
2019-04-23T08:54:13.300Z,4.20
2019-04-23T08:55:08.675Z,4.40
2019-04-23T08:56:10.639Z,4.10
2019-04-23T08:57:22.706Z,4.00
2019-04-23T08:58:14.101Z,4.40
2019-04-23T08:59:22.896Z,4.10
2019-04-23T09:00:07.827Z,4.30
2019-04-23T09:01:10.830Z,4.10
2019-04-23T09:02:25.564Z,4.30
2019-04-23T09:04:10.614Z,4.10
2019-04-23T09:05:20.802Z,4.20
2019-04-23T09:06:25.844Z,4.10
2019-04-23T09:07:16.719Z,4.20
2019-04-23T09:09:13.233Z,4.30
2019-04-23T09:10:15.345Z,4.40
2019-04-23T09:12:18.866Z,4.40
2019-04-23T09:13:35.291Z,4.10
2019-04-23T09:14:05.210Z,4.10
2019-04-23T09:15:16.810Z,4.30
2019-04-23T09:16:09.011Z,4.60
2019-04-23T09:17:17.201Z,4.60
2019-04-23T09:19:16.036Z,4.30
2019-04-23T09:22:25.141Z,4.40
2019-04-23T09:23:13.306Z,4.30
2019-04-23T09:24:09.591Z,3.80
2019-04-23T09:25:20.300Z,3.90
2019-04-23T09:26:22.742Z,4.00
2019-04-23T09:27:18.143Z,4.40
2019-04-23T09:28:24.017Z,4.40
2019-04-23T09:29:14.795Z,4.20
2019-04-23T09:30:12.600Z,4.20
2019-04-23T09:32:22.422Z,4.40
2019-04-23T09:33:14.063Z,4.10
2019-04-23T09:34:11.439Z,4.20
2019-04-23T09:35:20.229Z,4.10
2019-04-23T09:36:13.579Z,4.00
2019-04-23T09:37:18.843Z,3.90
2019-04-23T09:38:11.705Z,4.00
2019-04-23T09:39:12.897Z,4.20
2019-04-23T09:40:27.597Z,4.20
2019-04-23T09:42:16.156Z,4.00
2019-04-23T09:43:14.145Z,4.10
2019-04-23T09:44:39.118Z,4.20
2019-04-23T09:45:12.996Z,4.30
2019-04-23T09:46:17.435Z,4.30
2019-04-23T09:47:16.024Z,4.30
2019-04-23T09:48:04.937Z,4.10
2019-04-23T09:49:36.207Z,4.40
2019-04-23T09:50:15.675Z,3.90
2019-04-23T09:51:17.903Z,4.40
2019-04-23T09:52:14.603Z,4.30
2019-04-23T09:55:24.486Z,4.30
2019-04-23T09:56:14.847Z,4.50
2019-04-23T09:57:14.060Z,4.60
2019-04-23T09:58:11.868Z,4.50
2019-04-23T09:59:32.341Z,4.30
2019-04-23T10:00:23.074Z,4.10
2019-04-23T10:01:20.912Z,4.40
2019-04-23T10:02:06.620Z,4.50
2019-04-23T10:03:02.402Z,4.30
2019-04-23T10:04:00.048Z,4.40
2019-04-23T10:04:59.567Z,4.10
2019-04-23T10:05:57.152Z,4.20
2019-04-23T10:07:03.249Z,4.20
2019-04-23T10:07:58.631Z,4.50
2019-04-23T10:08:51.921Z,4.30
2019-04-23T10:09:48.367Z,4.20
2019-04-23T10:10:47.286Z,4.40
2019-04-23T10:11:47.330Z,4.40
2019-04-23T10:12:48.213Z,4.20
2019-04-23T10:13:48.382Z,4.30
2019-04-23T10:14:59.267Z,4.20
2019-04-23T10:15:49.666Z,4.70
2019-04-23T10:16:49.242Z,4.40
2019-04-23T10:17:47.692Z,4.00
2019-04-23T10:18:49.123Z,4.30
2019-04-23T10:19:48.669Z,4.30
2019-04-23T10:20:48.737Z,4.20
2019-04-23T10:21:49.190Z,4.20
2019-04-23T10:22:48.321Z,4.40
2019-04-23T10:23:49.564Z,4.40
2019-04-23T10:24:48.792Z,4.00
2019-04-23T10:25:48.189Z,4.60
2019-04-23T10:26:48.253Z,4.20
2019-04-23T10:27:55.075Z,4.30
2019-04-23T10:28:49.808Z,4.40
2019-04-23T10:29:49.849Z,4.60
2019-04-23T10:30:49.016Z,4.20
2019-04-23T10:31:49.460Z,4.40
2019-04-23T10:32:49.492Z,4.30
2019-04-23T10:33:50.284Z,3.80
2019-04-23T10:34:57.832Z,3.80
2019-04-23T10:35:55.109Z,3.90
2019-04-23T10:36:49.525Z,4.40
2019-04-23T10:37:56.855Z,4.40
2019-04-23T10:38:55.885Z,4.20
2019-04-23T10:39:54.855Z,4.40
2019-04-23T10:40:50.158Z,4.50
2019-04-23T10:41:50.969Z,4.70
2019-04-23T10:42:51.491Z,4.50
2019-04-23T10:43:52.368Z,5.00
2019-04-23T10:44:52.117Z,4.40
2019-04-23T10:46:07.975Z,5.00
2019-04-23T10:47:15.174Z,4.70
2019-04-23T10:49:32.135Z,4.70
2019-04-23T10:50:17.274Z,4.80
2019-04-23T10:51:25.054Z,5.80
2019-04-23T10:54:26.294Z,4.70
2019-04-23T10:55:11.861Z,4.80
2019-04-23T10:56:20.733Z,4.70
2019-04-23T10:57:33.911Z,6.40
2019-04-23T10:59:19.850Z,5.70
2019-04-23T11:00:22.314Z,6.60
2019-04-23T11:01:20.856Z,7.10
2019-04-23T11:02:32.876Z,5.30
2019-04-23T11:03:38.167Z,6.10
2019-04-23T11:04:38.505Z,5.40
2019-04-23T11:05:35.530Z,5.10
2019-04-23T11:06:28.771Z,5.20
2019-04-23T11:07:28.558Z,4.90
2019-04-23T11:08:18.291Z,4.50
2019-04-23T11:09:36.594Z,4.60
2019-04-23T11:10:16.088Z,5.60
2019-04-23T11:11:24.041Z,4.70
2019-04-23T11:12:32.492Z,4.70
2019-04-23T11:13:25.635Z,4.70
2019-04-23T11:14:25.586Z,4.70
2019-04-23T11:15:32.465Z,4.50
2019-04-23T11:17:31.967Z,4.40
2019-04-23T11:18:34.103Z,4.30
2019-04-23T11:19:27.646Z,4.20
2019-04-23T11:20:35.371Z,4.40
2019-04-23T11:22:40.275Z,4.60
2019-04-23T11:23:17.030Z,4.90
2019-04-23T11:24:30.490Z,4.40
2019-04-23T11:25:33.106Z,4.80
2019-04-23T11:26:26.424Z,4.70
2019-04-23T11:27:25.973Z,5.10
2019-04-23T11:28:25.792Z,4.80
2019-04-23T11:29:27.972Z,5.00
2019-04-23T11:31:31.561Z,5.20
2019-04-23T11:32:42.855Z,4.90
2019-04-23T11:33:19.894Z,4.50
2019-04-23T11:34:46.006Z,5.40
2019-04-23T11:37:37.967Z,4.90
2019-04-23T11:39:21.697Z,5.00
2019-04-23T11:40:31.317Z,5.10
2019-04-23T11:41:31.007Z,5.30
2019-04-23T11:43:34.237Z,4.90
2019-04-23T11:44:26.957Z,4.60
2019-04-23T11:45:32.510Z,5.40
2019-04-23T11:46:39.901Z,4.90
2019-04-23T11:48:00.451Z,4.50
2019-04-23T11:49:51.049Z,5.00
2019-04-23T11:50:28.117Z,4.50
2019-04-23T11:52:30.090Z,4.70
2019-04-23T11:53:26.063Z,4.70
2019-04-23T11:54:27.766Z,5.00
2019-04-23T11:55:35.789Z,4.50
2019-04-23T11:56:49.211Z,4.30
2019-04-23T11:59:31.651Z,4.70
2019-04-23T12:00:26.211Z,4.50
2019-04-23T12:02:23.449Z,4.40
2019-04-23T12:03:19.398Z,4.70
2019-04-23T12:05:26.587Z,4.60
2019-04-23T12:07:22.831Z,4.70
2019-04-23T12:08:36.512Z,4.70
2019-04-23T12:09:35.288Z,5.10
2019-04-23T12:10:29.069Z,4.60
2019-04-23T12:11:48.976Z,4.60
2019-04-23T12:12:25.081Z,4.60
2019-04-23T12:13:32.185Z,4.20
2019-04-23T12:14:37.177Z,4.50
2019-04-23T12:16:28.504Z,4.40
2019-04-23T12:20:28.919Z,4.50
2019-04-23T12:21:32.419Z,4.40
2019-04-23T12:24:53.617Z,4.70
2019-04-23T12:25:27.894Z,4.40
2019-04-23T12:26:40.777Z,4.70
2019-04-23T12:28:36.570Z,4.60
2019-04-23T12:29:33.905Z,4.80
2019-04-23T12:31:29.264Z,4.60
2019-04-23T12:33:39.126Z,4.80
2019-04-23T12:34:30.053Z,4.90
2019-04-23T12:35:25.691Z,4.70
2019-04-23T12:36:28.199Z,4.60
2019-04-23T12:37:33.388Z,5.40
2019-04-23T12:39:27.116Z,4.90
2019-04-23T12:41:29.859Z,4.80
2019-04-23T12:43:27.480Z,4.60
2019-04-23T12:44:30.654Z,4.40
2019-04-23T12:45:31.712Z,4.60
2019-04-23T12:46:29.670Z,4.60
2019-04-23T12:47:43.651Z,4.70
2019-04-23T12:48:33.731Z,4.60
2019-04-23T12:49:47.952Z,4.40
2019-04-23T12:51:34.997Z,4.30
2019-04-23T12:52:36.000Z,4.80
2019-04-23T12:53:30.626Z,4.80
2019-04-23T12:54:47.078Z,4.90
2019-04-23T12:55:41.910Z,4.60
2019-04-23T12:56:21.927Z,4.40
2019-04-23T12:57:29.666Z,4.40
2019-04-23T12:58:26.721Z,5.10
2019-04-23T12:59:28.653Z,4.40
2019-04-23T13:00:27.135Z,4.80
2019-04-23T13:01:37.791Z,4.60
2019-04-23T13:02:41.181Z,4.60
2019-04-23T13:04:24.872Z,4.30
2019-04-23T13:06:20.424Z,4.90
2019-04-23T13:07:36.729Z,4.70
2019-04-23T13:08:33.242Z,4.40
2019-04-23T13:09:42.919Z,5.10
2019-04-23T13:10:30.053Z,4.90
2019-04-23T13:11:32.994Z,4.70
2019-04-23T13:12:38.185Z,4.20
2019-04-23T13:13:27.986Z,4.70
2019-04-23T13:14:34.757Z,5.00
2019-04-23T13:17:42.581Z,4.70
2019-04-23T13:19:40.156Z,4.50
2019-04-23T13:20:28.041Z,5.30
2019-04-23T13:21:52.182Z,4.80
2019-04-23T13:22:37.431Z,4.40
2019-04-23T13:24:26.479Z,4.60
2019-04-23T13:25:34.813Z,4.60
2019-04-23T13:26:27.978Z,4.60
2019-04-23T13:27:38.638Z,4.70
2019-04-23T13:28:28.127Z,4.60
2019-04-23T13:29:41.017Z,4.40
2019-04-23T13:30:44.730Z,4.60
2019-04-23T13:31:20.449Z,4.80
2019-04-23T13:32:31.371Z,4.30
2019-04-23T13:33:35.494Z,4.70
2019-04-23T13:34:37.613Z,4.20
2019-04-23T13:36:32.470Z,4.30
2019-04-23T13:37:40.456Z,4.30
2019-04-23T13:38:36.312Z,4.40
2019-04-23T13:39:34.813Z,4.40
2019-04-23T13:40:47.522Z,4.30
2019-04-23T13:41:30.189Z,4.40
2019-04-23T13:43:36.256Z,4.50
2019-04-23T13:44:34.370Z,4.20
2019-04-23T13:46:32.936Z,3.90
2019-04-23T13:47:41.431Z,4.30
2019-04-23T13:48:19.930Z,4.50
2019-04-23T13:49:37.754Z,4.40
2019-04-23T13:55:00.027Z,4.40
2019-04-23T13:55:26.681Z,4.10
2019-04-23T13:56:39.261Z,4.40
2019-04-23T13:58:02.313Z,4.30
2019-04-23T13:58:28.361Z,4.40
2019-04-23T13:59:42.906Z,4.40
2019-04-23T14:01:35.445Z,4.60
2019-04-23T14:02:40.385Z,4.20
2019-04-23T14:03:35.765Z,4.20
2019-04-23T14:04:41.690Z,3.90
2019-04-23T14:05:33.104Z,4.50
2019-04-23T14:07:44.135Z,4.10
2019-04-23T14:10:44.860Z,4.20
2019-04-23T14:12:43.717Z,4.80
2019-04-23T14:14:42.129Z,4.10
2019-04-23T14:15:40.543Z,4.40
2019-04-23T14:16:39.702Z,4.30
2019-04-23T14:18:53.892Z,4.10
2019-04-23T14:19:28.092Z,4.40
2019-04-23T14:21:35.281Z,4.30
2019-04-23T14:22:51.242Z,4.40
2019-04-23T14:23:59.447Z,3.90
2019-04-23T14:24:38.231Z,4.00
2019-04-23T14:25:40.093Z,4.40
2019-04-23T14:26:35.186Z,4.10
2019-04-23T14:28:37.353Z,4.00
2019-04-23T14:29:41.418Z,4.50
2019-04-23T14:30:38.537Z,4.20
2019-04-23T14:31:28.524Z,3.80
2019-04-23T14:33:46.049Z,4.10
2019-04-23T14:34:40.845Z,4.00
2019-04-23T14:35:32.529Z,4.30
2019-04-23T14:36:39.694Z,4.10
2019-04-23T14:37:38.193Z,4.20
2019-04-23T14:39:31.739Z,4.60
2019-04-23T14:40:43.167Z,4.00
2019-04-23T14:41:26.401Z,4.00
2019-04-23T14:42:49.782Z,4.20
2019-04-23T14:44:36.548Z,4.20
2019-04-23T14:46:41.411Z,4.40
2019-04-23T14:47:38.022Z,4.50
2019-04-23T14:48:30.717Z,4.70
2019-04-23T14:52:39.061Z,4.50
2019-04-23T14:53:30.352Z,4.20
2019-04-23T14:54:52.499Z,4.20
2019-04-23T14:56:35.049Z,4.40
2019-04-23T14:57:45.173Z,4.50
2019-04-23T14:58:57.561Z,4.60
2019-04-23T14:59:30.727Z,4.20
2019-04-23T15:00:46.469Z,4.30
2019-04-23T15:01:35.512Z,4.30
2019-04-23T15:02:44.928Z,4.30
2019-04-23T15:03:40.346Z,4.50
2019-04-23T15:04:39.362Z,4.30
2019-04-23T15:05:45.974Z,4.20
2019-04-23T15:06:46.832Z,4.30
2019-04-23T15:07:36.972Z,4.50
2019-04-23T15:08:50.082Z,4.30
2019-04-23T15:09:52.789Z,4.40
2019-04-23T15:10:49.195Z,4.30
2019-04-23T15:11:35.412Z,4.60
2019-04-23T15:12:40.359Z,4.70
2019-04-23T15:13:38.581Z,4.30
2019-04-23T15:14:46.349Z,4.10
2019-04-23T15:15:31.868Z,3.90
2019-04-23T15:16:39.787Z,3.80
2019-04-23T15:17:34.679Z,4.20
2019-04-23T15:18:45.196Z,4.60
2019-04-23T15:20:39.270Z,4.40
2019-04-23T15:22:42.411Z,4.20
2019-04-23T15:24:38.447Z,4.10
2019-04-23T15:25:53.152Z,4.30
2019-04-23T15:26:58.870Z,4.40
2019-04-23T15:27:45.675Z,4.00
2019-04-23T15:28:14.208Z,4.60
2019-04-23T15:29:26.731Z,4.50
2019-04-23T15:30:38.759Z,4.40
2019-04-23T15:32:47.161Z,4.60
2019-04-23T15:33:44.955Z,4.30
2019-04-23T15:34:33.005Z,4.20
2019-04-23T15:35:53.357Z,4.40
2019-04-23T15:37:01.069Z,4.20
2019-04-23T15:38:43.452Z,5.00
2019-04-23T15:40:36.814Z,4.60
2019-04-23T15:42:00.829Z,4.50
2019-04-23T15:42:43.930Z,4.40
2019-04-23T15:43:46.798Z,4.30
2019-04-23T15:44:32.355Z,4.20
2019-04-23T15:45:42.373Z,4.80
2019-04-23T15:47:39.851Z,4.20
2019-04-23T15:48:46.440Z,4.40
2019-04-23T15:49:37.691Z,4.90
2019-04-23T15:50:37.203Z,5.00
2019-04-23T15:51:48.022Z,4.70
2019-04-23T15:52:44.307Z,4.40
2019-04-23T15:53:34.837Z,4.90
2019-04-23T15:54:56.792Z,4.90
2019-04-23T15:55:44.172Z,4.80
2019-04-23T15:58:48.569Z,4.40
2019-04-23T15:59:44.144Z,4.40
2019-04-23T16:00:39.727Z,4.20
2019-04-23T16:02:10.489Z,4.30
2019-04-23T16:03:12.904Z,3.70
2019-04-23T16:04:13.133Z,4.20
2019-04-23T16:05:12.508Z,4.50
2019-04-23T16:06:13.485Z,3.80
2019-04-23T16:07:16.884Z,3.90
2019-04-23T16:08:45.838Z,4.40
2019-04-23T16:09:37.123Z,4.20
2019-04-23T16:10:45.870Z,4.40
2019-04-23T16:11:47.804Z,4.00
2019-04-23T16:12:50.715Z,4.00
2019-04-23T16:13:53.372Z,4.00
2019-04-23T16:14:42.436Z,4.10
2019-04-23T16:15:43.377Z,3.90
2019-04-23T16:16:46.298Z,4.00
2019-04-23T16:17:46.932Z,4.10
2019-04-23T16:18:44.709Z,4.00
2019-04-23T16:19:45.884Z,3.90
2019-04-23T16:20:46.991Z,3.70
2019-04-23T16:21:47.925Z,4.00
2019-04-23T16:22:38.301Z,4.20
2019-04-23T16:24:01.092Z,4.00
2019-04-23T16:24:43.278Z,3.80
2019-04-23T16:25:36.387Z,4.00
2019-04-23T16:26:47.366Z,3.80
2019-04-23T16:27:36.575Z,4.10
2019-04-23T16:29:00.298Z,4.30
2019-04-23T16:30:36.544Z,4.30
2019-04-23T16:31:40.263Z,3.60
2019-04-23T16:32:52.311Z,3.70
2019-04-23T16:33:38.663Z,3.90
2019-04-23T16:34:33.640Z,4.10
2019-04-23T16:35:43.593Z,4.00
2019-04-23T16:36:41.394Z,3.90
2019-04-23T16:37:49.255Z,4.10
2019-04-23T16:39:39.301Z,4.20
2019-04-23T16:40:42.593Z,4.40
2019-04-23T16:41:52.161Z,4.90
2019-04-23T16:42:49.264Z,4.80
2019-04-23T16:43:44.391Z,4.40
2019-04-23T16:44:44.898Z,4.90
2019-04-23T16:45:49.248Z,4.70
2019-04-23T16:46:44.315Z,4.70
2019-04-23T16:47:46.730Z,4.40
2019-04-23T16:48:47.818Z,4.60